Time;durP1;ratioP1;P1;durP2;ratioP2;P2;SDS_P1;SDS_P2;PMS_P1;PMS_P2;Temp;Humidity;BMP_temperature;BMP_pressure;BME280_temperature;BME280_humidity;BME280_pressure;Samples;Min_cycle;Max_cycle;Signal;HPM_P1;HPM_P2
2022/05/20 00:02:06;;;;;;;3.75;2.53;;;;;;;14.30;90.59;102148.66;5004448;28;20067;-71
2022/05/20 00:04:32;;;;;;;6.38;3.45;;;;;;;14.29;90.58;102139.03;4990141;28;20073;-71
2022/05/20 00:06:57;;;;;;;7.13;3.63;;;;;;;14.13;91.29;102136.97;4982810;28;20026;-71
2022/05/20 00:09:22;;;;;;;4.28;3.47;;;;;;;14.18;90.66;102140.03;4986249;28;20026;-71
2022/05/20 00:11:48;;;;;;;4.78;3.20;;;;;;;14.13;90.64;102141.44;4986853;28;20064;-71
2022/05/20 00:14:14;;;;;;;3.97;2.92;;;;;;;14.12;90.54;102145.06;4989660;28;20125;-70
2022/05/20 00:16:40;;;;;;;4.22;3.13;;;;;;;14.10;90.19;102141.72;4991910;28;20018;-72
2022/05/20 00:19:07;;;;;;;8.52;3.65;;;;;;;13.98;91.38;102149.00;4992173;28;20073;-70
2022/05/20 00:21:34;;;;;;;10.27;3.50;;;;;;;13.95;91.69;102150.09;4990164;28;20089;-70
2022/05/20 00:23:59;;;;;;;4.95;3.83;;;;;;;13.97;91.80;102150.81;4970850;28;20042;-69
2022/05/20 00:26:26;;;;;;;6.05;3.70;;;;;;;13.98;91.59;102156.97;4983893;28;20050;-73
2022/05/20 00:28:53;;;;;;;7.18;3.97;;;;;;;13.97;91.68;102137.53;4983954;28;20057;-71
2022/05/20 00:31:21;;;;;;;8.40;4.07;;;;;;;13.92;91.58;102118.53;4983158;28;20023;-72
2022/05/20 00:33:46;;;;;;;6.13;3.63;;;;;;;14.02;91.31;102141.59;4982986;28;20026;-71
2022/05/20 00:36:12;;;;;;;5.68;4.25;;;;;;;13.97;91.26;102144.66;4984230;28;20058;-72
2022/05/20 00:38:38;;;;;;;8.90;5.00;;;;;;;13.86;91.65;102134.19;4983566;28;20096;-70
2022/05/20 00:41:04;;;;;;;12.23;5.05;;;;;;;13.85;91.61;102157.25;4964527;28;20097;-70
2022/05/20 00:43:32;;;;;;;7.38;4.60;;;;;;;13.77;92.82;102165.06;4985337;28;20072;-71
2022/05/20 00:46:04;;;;;;;6.38;4.10;;;;;;;13.70;92.67;102150.69;4985535;28;20694;-71
2022/05/20 00:48:30;;;;;;;8.73;4.65;;;;;;;13.60;92.63;102149.81;4983486;28;20501;-71
2022/05/20 00:51:42;;;;;;;9.13;5.28;;;;;;;13.54;92.25;102149.41;4984399;28;20113;-71
2022/05/20 00:54:20;;;;;;;7.43;4.40;;;;;;;13.41;92.39;102140.84;4980287;28;20054;-71
2022/05/20 00:57:03;;;;;;;11.45;4.32;;;;;;;13.30;92.23;102148.94;4981421;28;20019;-70
2022/05/20 00:59:33;;;;;;;8.10;4.55;;;;;;;13.22;92.36;102135.47;4985530;28;20080;-72
2022/05/20 01:02:05;;;;;;;9.23;4.75;;;;;;;13.12;92.13;102124.84;4982772;28;20011;-71
2022/05/20 01:04:31;;;;;;;8.13;5.30;;;;;;;13.24;92.71;102146.78;4983101;28;20110;-72
2022/05/20 01:06:57;;;;;;;8.80;5.28;;;;;;;13.09;93.50;102141.88;4984589;28;20035;-71
2022/05/20 01:09:22;;;;;;;7.60;4.72;;;;;;;12.97;93.64;102135.81;4964426;28;20098;-71
2022/05/20 01:11:48;;;;;;;7.13;5.18;;;;;;;13.02;93.50;102150.47;4979370;28;20038;-72
2022/05/20 01:14:20;;;;;;;6.47;5.10;;;;;;;12.98;93.10;102149.94;4980151;28;20404;-71
2022/05/20 01:16:46;;;;;;;9.93;4.90;;;;;;;12.89;93.69;102148.06;4983082;28;20433;-71
2022/05/20 01:19:19;;;;;;;8.13;4.82;;;;;;;12.83;93.43;102143.31;4983673;28;20078;-72
2022/05/20 01:21:45;;;;;;;12.57;5.18;;;;;;;12.86;93.21;102145.69;4979900;28;20061;-72
2022/05/20 01:24:10;;;;;;;6.07;5.00;;;;;;;12.77;94.80;102142.03;4980459;28;20058;-69
2022/05/20 01:26:35;;;;;;;8.18;5.22;;;;;;;12.63;94.67;102124.69;4984592;28;20085;-71
2022/05/20 01:29:01;;;;;;;10.60;5.35;;;;;;;12.70;94.48;102147.00;4978110;28;20062;-71
2022/05/20 01:31:26;;;;;;;5.80;4.80;;;;;;;12.58;95.13;102128.69;4971837;28;20045;-71
2022/05/20 01:33:52;;;;;;;8.30;5.45;;;;;;;12.64;95.08;102155.47;4964202;28;20450;-71
2022/05/20 01:36:23;;;;;;;8.75;5.05;;;;;;;12.60;96.11;102151.41;4982537;28;20074;-72
2022/05/20 01:38:50;;;;;;;5.78;4.85;;;;;;;12.52;95.82;102156.53;4982712;28;20018;-72
2022/05/20 01:41:28;;;;;;;9.70;4.90;;;;;;;12.48;95.70;102157.78;4983807;28;20030;-71
2022/05/20 01:44:04;;;;;;;10.40;4.88;;;;;;;12.46;96.00;102157.06;4981394;28;20101;-72
2022/05/20 01:46:38;;;;;;;10.77;5.22;;;;;;;12.42;95.59;102147.69;4983887;28;20045;-71
2022/05/20 01:49:25;;;;;;;6.97;4.97;;;;;;;12.35;96.09;102144.72;4979524;28;20109;-72
2022/05/20 01:52:21;;;;;;;9.40;5.95;;;;;;;12.32;97.34;102143.19;4982712;28;20487;-71
2022/05/20 01:54:59;;;;;;;8.10;5.80;;;;;;;12.20;97.77;102136.28;4979740;28;20026;-72
2022/05/20 01:57:33;;;;;;;8.55;5.97;;;;;;;12.27;97.53;102145.38;4982972;28;20031;-72
2022/05/20 02:00:21;;;;;;;8.30;5.28;;;;;;;12.30;97.40;102139.84;4981366;28;20418;-71
2022/05/20 02:03:06;;;;;;;14.20;5.97;;;;;;;12.31;96.79;102133.56;4962976;28;20488;-71
2022/05/20 02:05:39;;;;;;;9.23;6.30;;;;;;;12.30;97.26;102139.84;4982980;28;20185;-71
2022/05/20 02:08:13;;;;;;;11.10;6.43;;;;;;;12.27;98.57;102134.78;4982480;28;20402;-71
2022/05/20 02:10:43;;;;;;;11.18;6.47;;;;;;;12.26;97.74;102127.81;4980937;28;20030;-71
2022/05/20 02:13:12;;;;;;;10.57;7.18;;;;;;;12.20;98.02;102130.16;4984521;28;20037;-71
2022/05/20 02:15:47;;;;;;;11.63;7.40;;;;;;;12.18;98.87;102130.28;4966645;28;20624;-71
2022/05/20 02:18:19;;;;;;;11.90;7.65;;;;;;;12.04;98.31;102123.50;4980177;28;20072;-71
2022/05/20 02:20:48;;;;;;;8.77;6.32;;;;;;;12.11;98.84;102139.69;4982959;28;20034;-71
2022/05/20 02:23:28;;;;;;;11.93;7.57;;;;;;;12.06;98.01;102128.63;4957979;28;20165;-71
2022/05/20 02:25:57;;;;;;;14.35;8.63;;;;;;;12.05;98.55;102142.84;4983389;28;20390;-71
2022/05/20 02:28:25;;;;;;;14.10;9.38;;;;;;;12.01;99.11;102144.06;4978759;28;20134;-71
2022/05/20 02:30:53;;;;;;;16.50;10.80;;;;;;;11.80;99.26;102115.75;4983321;28;20026;-71
2022/05/20 02:33:22;;;;;;;13.00;8.93;;;;;;;11.84;99.98;102129.56;4960337;28;20054;-71
2022/05/20 02:35:48;;;;;;;14.50;10.00;;;;;;;11.67;99.77;102108.00;4946676;28;1091809;-72
2022/05/20 02:38:20;;;;;;;14.43;9.55;;;;;;;11.78;99.20;102120.34;4981244;28;20049;-71
2022/05/20 02:40:48;;;;;;;15.70;10.25;;;;;;;11.76;99.75;102124.06;4984392;28;20031;-71
2022/05/20 02:43:13;;;;;;;14.50;9.88;;;;;;;11.68;99.16;102111.47;4981528;28;20026;-71
2022/05/20 02:45:41;;;;;;;17.52;10.90;;;;;;;11.61;98.48;102099.72;4986558;28;20030;-71
2022/05/20 02:48:07;;;;;;;15.20;10.13;;;;;;;11.64;99.13;102121.47;4963706;28;20049;-71
2022/05/20 02:50:32;;;;;;;17.38;10.40;;;;;;;11.57;98.88;102108.88;4994632;28;20121;-71
2022/05/20 02:52:58;;;;;;;14.85;10.43;;;;;;;11.59;99.47;102128.09;4982018;28;20031;-71
2022/05/20 02:55:24;;;;;;;16.77;11.15;;;;;;;11.58;99.91;102124.59;4981368;28;20031;-71
2022/05/20 02:57:49;;;;;;;19.30;11.73;;;;;;;11.57;100.00;102117.66;4980641;28;20126;-73
2022/05/20 03:04:09;;;;;;;18.55;12.43;;;;;;;11.66;100.00;102100.19;4982457;28;20093;-71
2022/05/20 03:05:54;;;;;;;15.95;11.02;;;;;;;11.72;99.88;102097.03;4983286;28;20401;-71
2022/05/20 03:08:20;;;;;;;16.15;10.52;;;;;;;11.74;100.00;102100.41;4953267;28;20023;-72
2022/05/20 03:10:45;;;;;;;16.30;10.52;;;;;;;11.68;100.00;102099.09;4963003;28;20451;-73
2022/05/20 03:13:11;;;;;;;17.98;10.93;;;;;;;11.71;99.78;102105.94;4981471;28;20030;-71
2022/05/20 03:15:37;;;;;;;20.52;12.05;;;;;;;11.70;100.00;102104.25;4981665;28;20038;-71
2022/05/20 03:18:03;;;;;;;16.48;11.30;;;;;;;11.60;100.00;102098.03;4964742;28;20038;-72
2022/05/20 03:20:29;;;;;;;16.23;10.95;;;;;;;11.53;100.00;102095.91;4978715;28;20030;-72
2022/05/20 03:22:54;;;;;;;19.50;10.75;;;;;;;11.63;100.00;102114.50;4962846;28;20022;-72
2022/05/20 03:25:20;;;;;;;18.00;11.07;;;;;;;11.60;99.69;102108.63;4989290;28;20880;-72
2022/05/20 03:27:46;;;;;;;20.75;11.95;;;;;;;11.43;100.00;102075.63;4968184;28;20035;-71
2022/05/20 03:30:12;;;;;;;19.88;11.63;;;;;;;11.57;99.99;102100.94;4962411;28;20042;-71
2022/05/20 03:32:38;;;;;;;18.20;11.27;;;;;;;11.50;100.00;102104.09;4981681;28;20018;-71
2022/05/20 03:35:04;;;;;;;15.85;10.90;;;;;;;11.52;100.00;102117.19;4985193;28;20405;-72
2022/05/20 03:37:30;;;;;;;13.75;11.20;;;;;;;11.46;100.00;102115.88;4985256;28;20046;-71
2022/05/20 03:39:56;;;;;;;18.50;11.98;;;;;;;11.44;100.00;102112.50;4960824;28;20042;-71
2022/05/20 03:42:23;;;;;;;15.63;11.25;;;;;;;11.38;100.00;102110.38;4982250;28;20041;-72
2022/05/20 03:44:48;;;;;;;17.10;11.73;;;;;;;11.30;100.00;102097.78;4986534;28;20034;-71
2022/05/20 03:47:14;;;;;;;14.15;10.85;;;;;;;11.32;100.00;102084.41;4970569;28;20052;-73
2022/05/20 03:49:40;;;;;;;21.10;11.43;;;;;;;11.37;100.00;102087.56;4989855;28;20386;-71
2022/05/20 03:52:06;;;;;;;18.00;10.63;;;;;;;11.39;100.00;102103.25;4963193;28;20055;-72
2022/05/20 03:54:32;;;;;;;21.80;10.98;;;;;;;11.29;100.00;102089.97;4985446;28;20422;-72
2022/05/20 03:56:59;;;;;;;16.98;11.23;;;;;;;11.29;100.00;102108.47;4979068;28;20037;-72
2022/05/20 03:59:25;;;;;;;15.55;11.05;;;;;;;11.29;100.00;102111.94;4988067;28;20113;-72
2022/05/20 04:01:56;;;;;;;13.80;9.65;;;;;;;11.30;100.00;102118.06;4979764;28;20065;-72
2022/05/20 04:04:23;;;;;;;;;;;;;;;11.33;100.00;102117.84;4987144;28;20428;-71
2022/05/20 04:06:48;;;;;;;18.38;11.13;;;;;;;11.32;100.00;102111.72;4966034;28;19910;-72
2022/05/20 04:09:13;;;;;;;15.38;11.25;;;;;;;11.19;100.00;102099.59;4983489;28;20077;-71
2022/05/20 04:11:39;;;;;;;17.23;12.10;;;;;;;11.20;100.00;102102.13;4988547;28;20070;-72
2022/05/20 04:14:05;;;;;;;17.52;12.50;;;;;;;11.10;100.00;102123.16;4963335;28;20054;-72
2022/05/20 04:16:30;;;;;;;16.95;12.23;;;;;;;11.23;100.00;102149.44;4988098;28;20034;-71
2022/05/20 04:18:56;;;;;;;19.23;12.27;;;;;;;11.33;100.00;102144.25;4982326;28;20129;-72
2022/05/20 04:21:22;;;;;;;19.08;12.73;;;;;;;11.40;100.00;102147.25;4983728;28;20022;-72
2022/05/20 04:23:47;;;;;;;16.02;11.85;;;;;;;11.38;100.00;102136.78;4983901;28;20033;-70
2022/05/20 04:26:13;;;;;;;20.33;11.77;;;;;;;11.65;100.00;102154.03;4975580;28;20031;-74
2022/05/20 04:28:38;;;;;;;16.52;10.75;;;;;;;11.75;100.00;102160.25;4985856;28;20026;-72
2022/05/20 04:31:06;;;;;;;13.35;10.02;;;;;;;11.85;100.00;102165.63;4982212;28;20401;-72
2022/05/20 04:33:32;;;;;;;14.00;9.95;;;;;;;11.92;100.00;102175.59;4964189;28;20065;-72
2022/05/20 04:35:58;;;;;;;14.77;9.13;;;;;;;12.00;100.00;102168.84;4983763;28;20073;-72
2022/05/20 04:38:23;;;;;;;15.43;9.07;;;;;;;12.01;100.00;102165.25;4978817;28;20185;-75
2022/05/20 04:47:02;;;;;;;14.70;9.35;;;;;;;12.14;100.00;102166.72;4968355;28;20537;-73
2022/05/20 04:49:06;;;;;;;16.42;9.05;;;;;;;12.18;100.00;102166.50;4977352;28;20061;-73
2022/05/20 04:51:35;;;;;;;15.20;10.13;;;;;;;12.21;100.00;102172.34;4985372;28;20031;-73
2022/05/20 04:56:45;;;;;;;15.52;9.65;;;;;;;12.28;100.00;102176.19;4958690;28;20098;-73
2022/05/20 04:59:11;;;;;;;14.05;9.18;;;;;;;12.30;100.00;102161.00;4983096;28;20592;-73
2022/05/20 05:01:36;;;;;;;13.48;9.95;;;;;;;12.35;100.00;102171.22;4978533;28;20026;-73
2022/05/20 05:04:02;;;;;;;18.45;10.55;;;;;;;12.27;100.00;102168.34;4974637;28;20042;-74
2022/05/20 05:06:27;;;;;;;14.55;9.80;;;;;;;12.32;100.00;102174.97;4981430;28;20041;-73
2022/05/20 05:08:53;;;;;;;15.77;10.57;;;;;;;12.35;100.00;102179.97;4971211;28;20034;-74
2022/05/20 05:11:20;;;;;;;16.88;9.57;;;;;;;12.30;100.00;102170.72;4980648;28;20061;-71
2022/05/20 05:13:45;;;;;;;22.25;12.05;;;;;;;12.25;100.00;102171.13;4975464;28;20031;-72
2022/05/20 05:16:10;;;;;;;18.15;9.85;;;;;;;12.24;100.00;102169.47;4959375;28;20034;-73
2022/05/20 05:18:37;;;;;;;20.20;10.63;;;;;;;12.25;100.00;102168.47;4978246;28;20070;-71
2022/05/20 05:21:03;;;;;;;18.25;10.13;;;;;;;12.20;100.00;102170.69;4962717;28;20402;-72
2022/05/20 05:23:29;;;;;;;15.77;10.85;;;;;;;12.25;100.00;102172.94;4979795;28;20101;-73
2022/05/20 05:25:55;;;;;;;18.58;12.55;;;;;;;12.09;100.00;102173.38;4979319;28;20066;-72
2022/05/20 05:28:21;;;;;;;16.05;11.75;;;;;;;12.15;100.00;102172.88;4979790;28;20034;-72
2022/05/20 05:30:51;;;;;;;20.63;11.10;;;;;;;12.23;100.00;102156.34;4980376;28;20041;-73
2022/05/20 05:33:18;;;;;;;20.15;12.85;;;;;;;12.45;100.00;102187.13;4979608;28;20522;-71
2022/05/20 05:35:44;;;;;;;15.10;10.60;;;;;;;12.34;100.00;102172.16;4983266;28;20168;-69
2022/05/20 05:38:09;;;;;;;15.25;10.82;;;;;;;12.58;100.00;102181.66;4960857;28;20038;-71
2022/05/20 05:40:35;;;;;;;23.60;12.35;;;;;;;12.45;100.00;102176.56;4974232;28;20038;-72
2022/05/20 05:43:02;;;;;;;17.30;11.10;;;;;;;12.49;100.00;102180.63;4949174;28;20054;-72
2022/05/20 05:45:30;;;;;;;19.48;10.68;;;;;;;12.74;100.00;102179.38;4958043;28;20030;-72
2022/05/20 05:48:05;;;;;;;17.95;11.48;;;;;;;12.87;100.00;102173.84;4974886;28;20072;-73
2022/05/20 05:50:33;;;;;;;15.68;10.52;;;;;;;12.95;100.00;102177.50;4976053;28;20038;-73
2022/05/20 05:53:09;;;;;;;15.52;10.70;;;;;;;13.25;100.00;102185.59;4980234;28;20101;-73
2022/05/20 05:55:35;;;;;;;19.58;10.38;;;;;;;13.57;100.00;102180.13;4961922;28;20452;-72
2022/05/20 05:58:00;;;;;;;12.48;9.63;;;;;;;13.70;100.00;102172.72;4956684;28;20390;-72
2022/05/20 06:00:26;;;;;;;15.95;9.18;;;;;;;14.02;99.05;102166.31;4977091;28;20540;-72
2022/05/20 06:02:52;;;;;;;12.70;8.82;;;;;;;14.17;97.14;102178.16;4979461;28;20455;-72
2022/05/20 06:05:17;;;;;;;17.73;10.27;;;;;;;14.46;95.90;102179.09;4981470;28;20447;-73
2022/05/20 06:07:43;;;;;;;16.80;9.77;;;;;;;14.46;95.18;102163.16;4973469;28;20033;-74
2022/05/20 06:10:08;;;;;;;11.18;8.35;;;;;;;14.65;94.65;102175.59;4978381;28;20054;-74
2022/05/20 06:12:34;;;;;;;12.95;8.68;;;;;;;14.95;92.90;102174.53;4974661;28;20383;-73
2022/05/20 06:15:08;;;;;;;12.88;8.60;;;;;;;15.21;92.07;102170.19;4971303;28;20053;-74
2022/05/20 06:17:33;;;;;;;13.07;7.93;;;;;;;15.43;89.67;102171.59;4980632;28;20049;-73
2022/05/20 06:19:59;;;;;;;17.73;8.63;;;;;;;15.63;88.52;102159.03;4973709;28;20027;-74
2022/05/20 06:22:25;;;;;;;10.60;7.97;;;;;;;15.81;87.50;102167.06;4970858;28;20106;-74
2022/05/20 06:24:51;;;;;;;11.55;8.05;;;;;;;15.67;86.57;102174.69;4950431;28;20034;-74
2022/05/20 06:27:16;;;;;;;11.82;7.57;;;;;;;15.74;88.31;102178.44;4966124;28;20440;-74
2022/05/20 06:29:41;;;;;;;12.25;7.15;;;;;;;15.77;87.33;102191.47;4980593;28;20037;-74
2022/05/20 06:32:07;;;;;;;10.10;6.95;;;;;;;15.79;87.64;102162.88;4968675;28;20030;-73
2022/05/20 06:39:48;;;;;;;11.20;6.68;;;;;;;16.20;87.46;102165.84;4957968;28;20041;-73
2022/05/20 06:40:09;;;;;;;8.90;5.70;;;;;;;16.44;85.47;102159.91;4973802;28;20576;-74
2022/05/20 06:42:34;;;;;;;13.85;6.22;;;;;;;16.47;83.44;102138.25;4976956;28;20116;-73
2022/05/20 06:45:00;;;;;;;7.85;4.78;;;;;;;16.88;81.84;102148.34;4954612;28;20042;-73
2022/05/20 06:47:25;;;;;;;7.43;5.13;;;;;;;17.13;79.16;102131.41;4975014;28;20284;-74
2022/05/20 06:49:50;;;;;;;9.18;5.22;;;;;;;17.53;78.99;102145.00;4966691;28;20781;-73
2022/05/20 06:52:16;;;;;;;6.32;4.13;;;;;;;17.93;77.49;102148.78;4969041;28;20480;-73
2022/05/20 06:54:41;;;;;;;11.43;5.10;;;;;;;18.25;74.20;102113.19;4970481;28;20438;-73
2022/05/20 06:57:06;;;;;;;10.80;4.65;;;;;;;18.30;73.38;102124.19;4952615;28;20478;-73
2022/05/20 06:59:32;;;;;;;9.18;4.63;;;;;;;18.11;74.11;102098.66;4976992;28;20095;-73
2022/05/20 07:02:00;;;;;;;8.45;4.38;;;;;;;18.11;74.97;102105.84;4956826;28;20058;-73
2022/05/20 07:04:29;;;;;;;6.35;4.70;;;;;;;17.99;75.03;102116.88;4954723;28;20470;-74
2022/05/20 07:06:55;;;;;;;6.63;4.88;;;;;;;18.26;74.71;102118.34;4970783;28;20030;-75
2022/05/20 07:09:21;;;;;;;7.85;4.70;;;;;;;18.53;73.80;102128.81;4974822;28;20018;-73
2022/05/20 07:11:46;;;;;;;7.82;4.78;;;;;;;18.47;73.62;102108.97;4975685;28;20469;-73
2022/05/20 07:14:11;;;;;;;8.27;4.10;;;;;;;17.56;72.08;102116.16;4961359;28;20030;-73
2022/05/20 07:16:37;;;;;;;8.43;3.95;;;;;;;16.91;75.16;102122.16;4977629;28;20343;-73
2022/05/20 07:19:02;;;;;;;8.68;4.18;;;;;;;17.76;75.04;102094.50;4963025;28;20504;-72
2022/05/20 07:21:27;;;;;;;6.40;3.70;;;;;;;17.87;71.94;102118.22;4990988;28;20124;-72
2022/05/20 07:23:53;;;;;;;7.68;4.15;;;;;;;17.44;73.00;102113.00;4978964;28;20030;-72
2022/05/20 07:26:19;;;;;;;9.88;4.00;;;;;;;17.50;73.77;102110.66;4980457;28;20026;-72
2022/05/20 07:28:46;;;;;;;7.80;4.47;;;;;;;17.45;73.97;102111.16;4978578;28;20274;-73
2022/05/20 07:31:12;;;;;;;10.13;4.57;;;;;;;17.59;72.85;102115.00;4984579;28;20057;-73
2022/05/20 07:33:37;;;;;;;6.93;4.70;;;;;;;18.02;73.55;102121.06;4979406;28;20541;-73
2022/05/20 07:36:04;;;;;;;7.25;5.05;;;;;;;18.00;71.70;102118.53;4980673;28;20426;-72
2022/05/20 07:38:29;;;;;;;8.05;4.30;;;;;;;18.23;71.47;102113.34;4980822;28;20532;-73
2022/05/20 07:40:56;;;;;;;11.95;5.60;;;;;;;18.13;70.64;102114.53;4946887;28;20019;-73
2022/05/20 07:43:24;;;;;;;7.18;4.32;;;;;;;17.61;72.60;102111.16;4980317;28;21077;-73
2022/05/20 07:45:50;;;;;;;8.90;6.15;;;;;;;16.58;76.08;102126.50;4963134;28;20536;-73
2022/05/20 07:48:16;;;;;;;6.63;5.32;;;;;;;16.74;76.03;102121.22;4981643;28;20019;-73
2022/05/20 07:50:45;;;;;;;9.75;4.50;;;;;;;17.98;75.86;102112.53;4982214;28;20085;-73
2022/05/20 07:53:29;;;;;;;5.97;3.80;;;;;;;18.98;69.24;102113.97;4979424;28;20044;-73
2022/05/20 07:56:17;;;;;;;5.15;2.92;;;;;;;18.61;68.32;102123.44;4980701;28;20042;-74
2022/05/20 07:58:59;;;;;;;10.07;4.10;;;;;;;18.25;69.22;102121.22;4978668;28;20410;-73
2022/05/20 08:01:29;;;;;;;8.88;4.05;;;;;;;18.06;69.91;102096.50;4981216;28;20395;-73
2022/05/20 08:06:42;;;;;;;8.70;4.15;;;;;;;17.62;73.29;102088.81;4981316;28;20121;-74
2022/05/20 08:09:09;;;;;;;11.57;4.13;;;;;;;18.90;68.94;102102.31;4979720;28;20097;-72
2022/05/20 08:11:35;;;;;;;8.68;3.67;;;;;;;18.77;66.46;102096.66;4982718;28;20130;-75
2022/05/20 08:14:01;;;;;;;8.65;4.72;;;;;;;18.15;68.56;102108.00;4983000;28;20035;-72
2022/05/20 08:16:26;;;;;;;5.90;3.50;;;;;;;17.53;69.34;102104.97;4978274;28;20032;-72
2022/05/20 08:18:52;;;;;;;4.80;3.38;;;;;;;17.46;70.72;102099.47;4980621;28;20049;-73
2022/05/20 08:21:17;;;;;;;5.32;2.92;;;;;;;17.32;72.02;102087.63;4979447;28;20026;-72
2022/05/20 08:23:44;;;;;;;8.13;3.55;;;;;;;17.73;72.54;102106.34;4979902;28;20470;-73
2022/05/20 08:26:09;;;;;;;7.53;4.03;;;;;;;18.86;68.13;102106.34;4980371;28;20030;-73
2022/05/20 08:28:34;;;;;;;10.02;3.28;;;;;;;19.35;65.71;102099.03;4961042;28;20390;-74
2022/05/20 08:31:00;;;;;;;9.65;4.30;;;;;;;19.53;66.28;102091.53;4964264;28;20397;-73
2022/05/20 08:33:26;;;;;;;6.40;2.95;;;;;;;20.76;64.17;102101.09;4981425;28;20026;-73
2022/05/20 08:35:51;;;;;;;5.18;3.20;;;;;;;20.79;61.90;102100.72;4978473;28;20105;-73
2022/05/20 08:38:17;;;;;;;7.50;3.70;;;;;;;20.20;62.37;102073.91;4979586;28;20038;-73
2022/05/20 08:40:45;;;;;;;6.28;3.28;;;;;;;20.31;64.09;102076.13;4948577;28;20029;-73
2022/05/20 08:43:12;;;;;;;5.43;2.88;;;;;;;20.70;60.90;102075.03;4980307;28;20045;-72
2022/05/20 08:45:37;;;;;;;9.80;3.45;;;;;;;20.08;62.11;102066.31;4979294;28;20049;-73
2022/05/20 08:48:04;;;;;;;10.75;3.33;;;;;;;19.36;66.50;102071.25;4978728;28;20467;-72
2022/05/20 08:50:34;;;;;;;8.10;3.40;;;;;;;19.16;66.82;102069.03;4962645;28;20088;-72
2022/05/20 08:53:00;;;;;;;5.78;2.88;;;;;;;19.69;67.04;102045.91;4980504;28;20061;-72
2022/05/20 08:55:26;;;;;;;7.07;3.60;;;;;;;19.55;66.25;102043.16;4960931;28;20656;-71
2022/05/20 08:58:00;;;;;;;7.70;3.33;;;;;;;19.80;67.37;102041.97;4978427;28;20490;-73
2022/05/20 09:00:28;;;;;;;7.55;3.40;;;;;;;19.55;65.17;102053.88;4976455;28;20465;-70
2022/05/20 09:02:53;;;;;;;6.25;2.80;;;;;;;18.98;65.59;102047.09;4978747;28;20035;-71
2022/05/20 09:05:29;;;;;;;8.10;3.03;;;;;;;19.96;65.35;102043.66;4982261;28;20018;-73
2022/05/20 09:08:19;;;;;;;6.20;3.20;;;;;;;20.03;64.42;102036.53;4979213;28;20394;-71
2022/05/20 09:10:45;;;;;;;8.07;3.40;;;;;;;20.46;63.46;102031.38;4980937;28;20494;-72
2022/05/20 09:15:43;;;;;;;7.32;3.10;;;;;;;20.90;61.79;102024.28;4982260;28;20037;-68
2022/05/20 09:16:13;;;;;;;7.18;3.08;;;;;;;20.65;61.34;102027.31;4974031;28;20042;-70
2022/05/20 09:18:42;;;;;;;5.07;2.75;;;;;;;21.68;58.13;102019.84;4994280;28;20026;-70
2022/05/20 09:21:23;;;;;;;8.45;2.35;;;;;;;21.80;57.47;102033.59;4959981;28;20502;-71
2022/05/20 09:23:53;;;;;;;5.22;2.28;;;;;;;22.03;58.79;102027.94;4992604;28;20110;-69
2022/05/20 09:26:26;;;;;;;5.55;2.50;;;;;;;22.48;53.93;102020.38;4977588;28;20049;-73
2022/05/20 09:29:05;;;;;;;4.03;2.55;;;;;;;21.87;55.06;102002.22;4981866;28;20031;-70
2022/05/20 09:31:43;;;;;;;4.07;2.55;;;;;;;22.53;55.58;102017.06;4971910;28;20041;-70
2022/05/20 09:34:20;;;;;;;7.45;2.47;;;;;;;22.67;54.13;101996.41;4963179;28;20363;-70
2022/05/20 09:37:09;;;;;;;4.75;1.80;;;;;;;24.13;52.87;101996.47;4970261;28;20073;-70
2022/05/20 09:39:41;;;;;;;5.18;2.03;;;;;;;22.96;53.51;101997.94;4956313;28;20034;-70
2022/05/20 09:42:22;;;;;;;3.40;2.00;;;;;;;22.51;54.20;101987.66;4979124;28;20038;-70
2022/05/20 09:44:51;;;;;;;7.10;2.40;;;;;;;22.23;55.01;101977.00;4967653;28;20030;-70
2022/05/20 09:47:33;;;;;;;6.70;2.70;;;;;;;22.01;55.78;101978.09;4960892;28;20037;-69
2022/05/20 09:50:24;;;;;;;7.32;2.92;;;;;;;22.07;55.82;101967.38;4960288;28;20385;-70
2022/05/20 09:52:58;;;;;;;4.70;2.72;;;;;;;22.01;55.39;101956.59;4997443;28;20492;-70
2022/05/20 09:55:29;;;;;;;6.47;3.15;;;;;;;23.12;54.24;101977.91;4979616;28;20545;-72
2022/05/20 09:57:57;;;;;;;6.03;2.83;;;;;;;23.07;53.03;101964.22;4986438;28;20105;-70
2022/05/20 10:00:26;;;;;;;5.47;2.67;;;;;;;21.55;55.83;101972.22;4998685;28;20031;-71
2022/05/20 10:03:14;;;;;;;5.30;2.88;;;;;;;21.66;57.44;101973.56;4983597;28;20489;-71
2022/05/20 10:05:52;;;;;;;6.20;3.22;;;;;;;22.37;56.40;101948.31;4979224;28;20030;-71
2022/05/20 10:08:37;;;;;;;5.10;2.45;;;;;;;23.11;55.42;101943.94;4984281;28;20084;-71
2022/05/20 10:11:19;;;;;;;6.72;2.72;;;;;;;22.79;53.33;101920.25;4984452;28;20379;-71
2022/05/20 10:13:53;;;;;;;5.45;3.10;;;;;;;21.71;56.83;101919.22;4968543;28;20040;-70
2022/05/20 10:16:28;;;;;;;6.68;2.92;;;;;;;21.45;59.20;101914.50;4986248;28;20061;-70
2022/05/20 10:19:16;;;;;;;7.30;3.15;;;;;;;21.29;57.44;101900.31;4984932;28;20512;-70
2022/05/20 10:21:51;;;;;;;6.47;3.90;;;;;;;20.68;59.22;101890.09;4980759;28;20026;-71
2022/05/20 10:24:38;;;;;;;7.40;3.70;;;;;;;19.55;62.89;101882.50;4981510;28;20421;-71
2022/05/20 10:27:12;;;;;;;5.18;3.38;;;;;;;20.07;62.48;101877.03;4984181;28;20108;-71
2022/05/20 10:33:02;;;;;;;9.40;4.10;;;;;;;19.70;61.46;101894.09;4984122;28;20655;-71
2022/05/20 10:35:42;;;;;;;6.70;3.47;;;;;;;19.48;62.63;101872.53;4983325;28;20058;-71
2022/05/20 10:38:27;;;;;;;8.05;4.10;;;;;;;19.86;63.37;101874.31;4981143;28;20034;-71
2022/05/20 10:40:59;;;;;;;6.22;3.63;;;;;;;20.18;63.12;101877.59;4964465;28;20034;-72
2022/05/20 10:49:43;;;;;;;9.07;3.78;;;;;;;20.93;59.42;101882.50;4986739;28;20168;-71
2022/05/20 10:52:51;;;;;;;6.97;4.10;;;;;;;21.13;59.38;101865.75;4988856;28;20481;-71
2022/05/20 10:55:28;;;;;;;4.78;3.72;;;;;;;21.87;57.91;101867.03;4991305;28;20114;-72
2022/05/20 10:58:39;;;;;;;6.10;4.45;;;;;;;21.38;57.72;101874.16;4981756;28;20030;-71
2022/05/20 11:01:23;;;;;;;5.88;4.53;;;;;;;20.87;59.62;101845.72;4973915;28;20078;-72
2022/05/20 11:04:10;;;;;;;7.53;4.50;;;;;;;21.03;59.80;101841.09;4985142;28;20037;-72
2022/05/20 11:06:53;;;;;;;6.00;3.90;;;;;;;20.86;59.33;101829.81;4982431;28;20500;-72
2022/05/20 11:09:37;;;;;;;7.10;3.42;;;;;;;21.12;57.24;101829.16;4983682;28;20033;-72
2022/05/20 11:12:04;;;;;;;6.93;3.65;;;;;;;20.81;57.27;101818.84;4982318;28;20081;-72
2022/05/20 11:15:24;;;;;;;7.07;3.50;;;;;;;21.92;58.23;101825.06;4964828;28;20490;-72
2022/05/20 11:18:07;;;;;;;6.97;4.00;;;;;;;21.93;57.29;101794.50;4909212;29;20469;-72
2022/05/20 11:21:06;;;;;;;6.18;3.95;;;;;;;21.43;58.46;101790.38;4910746;29;20091;-72
2022/05/20 11:23:44;;;;;;;7.45;3.53;;;;;;;21.02;59.28;101783.09;4923592;29;20024;-72
2022/05/20 11:26:15;;;;;;;6.68;4.00;;;;;;;20.97;59.06;101786.34;4907990;29;20044;-71
2022/05/20 11:29:02;;;;;;;9.32;4.05;;;;;;;20.68;59.72;101782.00;4908101;29;20083;-72
2022/05/20 11:31:54;;;;;;;7.30;3.95;;;;;;;20.22;60.19;101788.56;4906466;29;20073;-72
2022/05/20 11:34:28;;;;;;;6.15;3.42;;;;;;;20.67;58.62;101780.34;4907382;29;20084;-71
2022/05/20 11:37:28;;;;;;;6.43;3.00;;;;;;;20.90;58.79;101770.19;4904945;29;20528;-71
2022/05/20 11:40:25;;;;;;;5.10;3.08;;;;;;;21.03;58.48;101760.56;4904142;29;20036;-72
2022/05/20 11:43:07;;;;;;;5.25;3.42;;;;;;;20.99;58.15;101757.47;4905994;29;20025;-72
2022/05/20 11:45:48;;;;;;;5.53;3.10;;;;;;;21.64;59.03;101738.38;4904239;29;20099;-72
2022/05/20 11:48:28;;;;;;;7.13;3.53;;;;;;;22.16;56.95;101740.34;4902854;29;20497;-72
2022/05/20 11:50:56;;;;;;;6.43;3.63;;;;;;;21.78;58.05;101724.78;4911166;28;20497;-72
2022/05/20 11:53:34;;;;;;;5.70;3.22;;;;;;;22.12;58.60;101716.78;4964111;28;20058;-72
2022/05/20 11:56:14;;;;;;;5.80;3.60;;;;;;;22.28;57.93;101705.66;4978426;28;20022;-72
2022/05/20 11:58:54;;;;;;;20.17;4.43;;;;;;;22.67;58.42;101701.28;4980023;28;20112;-72
2022/05/20 12:01:21;;;;;;;5.75;3.17;;;;;;;22.96;56.96;101708.03;4982824;28;20085;-72